createdAt,value
2019-01-14T00:01:26.253Z,84.24
2019-01-14T00:03:55.469Z,85.76
2019-01-14T00:06:24.552Z,84.57
2019-01-14T00:08:53.692Z,85.60
2019-01-14T00:11:22.769Z,85.15
2019-01-14T00:13:51.881Z,84.37
2019-01-14T00:16:20.957Z,83.12
2019-01-14T00:18:50.070Z,84.00
2019-01-14T00:21:19.173Z,83.04
2019-01-14T00:23:48.301Z,83.56
2019-01-14T00:26:17.404Z,84.02
2019-01-14T00:28:46.524Z,84.18
2019-01-14T00:31:15.645Z,83.78
2019-01-14T00:33:45.212Z,82.60
2019-01-14T00:36:17.632Z,82.78
2019-01-14T00:38:45.313Z,83.24
2019-01-14T00:41:14.625Z,84.03
2019-01-14T00:43:43.705Z,85.44
2019-01-14T00:46:12.896Z,85.18
2019-01-14T00:48:41.928Z,85.37
2019-01-14T00:51:11.101Z,84.86
2019-01-14T00:53:40.141Z,84.39
2019-01-14T00:56:09.309Z,84.64
2019-01-14T00:58:38.375Z,85.36
2019-01-14T01:01:07.538Z,84.23
2019-01-14T01:03:36.622Z,84.72
2019-01-14T01:06:05.896Z,84.01
2019-01-14T01:08:34.972Z,84.21
2019-01-14T01:11:04.339Z,85.67
2019-01-14T01:13:33.451Z,85.50
2019-01-14T01:16:02.502Z,85.19
2019-01-14T01:18:31.560Z,85.27
2019-01-14T01:21:00.704Z,84.92
2019-01-14T01:23:29.783Z,85.31
2019-01-14T01:25:58.828Z,82.65
2019-01-14T01:28:27.941Z,81.41
2019-01-14T01:30:57.074Z,83.37
2019-01-14T01:33:26.163Z,82.06
2019-01-14T01:35:55.252Z,87.72
2019-01-14T01:38:24.360Z,87.23
2019-01-14T01:40:53.418Z,85.33
2019-01-14T01:43:22.600Z,86.09
2019-01-14T01:45:51.787Z,86.31
2019-01-14T01:48:20.845Z,87.40
2019-01-14T01:50:49.946Z,87.45
2019-01-14T01:53:19.016Z,87.79
2019-01-14T01:55:48.068Z,87.69
2019-01-14T01:58:17.241Z,88.42
2019-01-14T02:00:46.327Z,89.25
2019-01-14T02:03:15.405Z,89.10
2019-01-14T02:05:44.463Z,89.79
2019-01-14T02:08:13.582Z,90.30
2019-01-14T02:10:42.657Z,90.94
2019-01-14T02:13:11.721Z,90.35
2019-01-14T02:15:40.815Z,90.72
2019-01-14T02:18:09.963Z,90.24
2019-01-14T02:20:39.008Z,90.54
2019-01-14T02:23:08.056Z,90.80
2019-01-14T02:25:37.144Z,89.84
2019-01-14T02:28:06.195Z,90.45
2019-01-14T02:30:35.288Z,90.30
2019-01-14T02:33:04.318Z,90.28
2019-01-14T02:35:33.373Z,90.41
2019-01-14T02:38:02.442Z,90.80
2019-01-14T02:40:31.546Z,90.17
2019-01-14T02:43:00.655Z,89.74
2019-01-14T02:45:29.709Z,90.26
2019-01-14T02:47:58.759Z,90.63
2019-01-14T02:50:27.850Z,91.05
2019-01-14T02:52:56.919Z,90.18
2019-01-14T02:55:26.030Z,90.68
2019-01-14T02:57:55.126Z,90.16
2019-01-14T03:00:26.051Z,90.42
2019-01-14T03:02:55.112Z,90.34
2019-01-14T03:05:24.163Z,89.91
2019-01-14T03:07:53.233Z,90.26
2019-01-14T03:10:22.264Z,90.18
2019-01-14T03:12:51.359Z,90.17
2019-01-14T03:15:20.409Z,90.38
2019-01-14T03:17:49.485Z,89.94
2019-01-14T03:20:18.555Z,89.89
2019-01-14T03:22:47.629Z,90.54
2019-01-14T03:25:17.065Z,90.13
2019-01-14T03:27:46.188Z,90.46
2019-01-14T03:30:17.426Z,89.75
2019-01-14T03:32:46.526Z,90.30
2019-01-14T03:35:15.663Z,89.69
2019-01-14T03:37:44.894Z,90.17
2019-01-14T03:40:15.870Z,89.25
2019-01-14T03:42:45.037Z,89.42
2019-01-14T03:45:14.147Z,89.97
2019-01-14T03:47:43.209Z,89.55
2019-01-14T03:50:23.035Z,88.92
2019-01-14T03:52:52.122Z,88.68
2019-01-14T03:55:21.180Z,89.08
2019-01-14T03:57:51.540Z,88.74
2019-01-14T04:00:20.616Z,89.02
2019-01-14T04:02:49.714Z,89.11
2019-01-14T04:05:18.816Z,88.78
2019-01-14T04:07:47.847Z,89.32
2019-01-14T04:10:17.497Z,88.79
2019-01-14T04:12:46.610Z,89.95
2019-01-14T04:15:17.262Z,89.22
2019-01-14T04:17:46.394Z,88.72
2019-01-14T04:20:16.696Z,88.41
2019-01-14T04:22:45.754Z,89.27
2019-01-14T04:25:14.835Z,89.63
2019-01-14T04:27:43.899Z,89.69
2019-01-14T04:30:16.344Z,89.18
2019-01-14T04:32:45.410Z,89.10
2019-01-14T04:35:14.478Z,89.18
2019-01-14T04:37:43.585Z,89.59
2019-01-14T04:40:12.772Z,89.59
2019-01-14T04:42:41.837Z,89.57
2019-01-14T04:45:11.462Z,89.43
2019-01-14T04:47:40.592Z,89.32
2019-01-14T04:50:11.441Z,89.27
2019-01-14T04:52:40.504Z,89.08
2019-01-14T04:55:09.530Z,89.94
2019-01-14T04:57:38.650Z,90.10
2019-01-14T05:00:11.740Z,90.69
2019-01-14T05:02:40.894Z,89.84
2019-01-14T05:05:09.973Z,90.45
2019-01-14T05:07:39.037Z,90.39
2019-01-14T05:10:09.150Z,89.69
2019-01-14T05:12:38.252Z,88.56
2019-01-14T05:15:09.425Z,89.45
2019-01-14T05:17:38.500Z,89.77
2019-01-14T05:20:09.982Z,90.00
2019-01-14T05:22:39.069Z,90.53
2019-01-14T05:25:08.745Z,91.10
2019-01-14T05:27:37.834Z,91.00
2019-01-14T05:30:07.443Z,91.39
2019-01-14T05:32:36.483Z,90.10
2019-01-14T05:35:06.029Z,90.75
2019-01-14T05:37:37.769Z,90.25
2019-01-14T05:40:10.448Z,90.54
2019-01-14T05:42:39.587Z,89.88
2019-01-14T05:45:08.668Z,90.74
2019-01-14T05:47:37.733Z,90.73
2019-01-14T05:50:08.711Z,92.41
2019-01-14T05:52:37.901Z,94.51
2019-01-14T05:55:07.440Z,94.47
2019-01-14T05:57:36.628Z,93.75
2019-01-14T06:00:18.366Z,92.74
2019-01-14T06:02:47.515Z,92.44
2019-01-14T06:05:16.614Z,92.40
2019-01-14T06:07:45.688Z,92.62
2019-01-14T06:10:14.791Z,93.28
2019-01-14T06:12:43.968Z,92.77
2019-01-14T06:15:13.105Z,92.74
2019-01-14T06:17:42.231Z,92.80
2019-01-14T06:20:13.080Z,93.15
2019-01-14T06:22:42.159Z,92.26
2019-01-14T06:25:11.741Z,91.92
2019-01-14T06:27:40.918Z,92.67
2019-01-14T06:30:17.454Z,92.81
2019-01-14T06:32:46.587Z,92.57
2019-01-14T06:35:15.647Z,93.73
2019-01-14T06:37:44.726Z,92.88
2019-01-14T06:40:14.970Z,92.43
2019-01-14T06:42:44.041Z,91.98
2019-01-14T06:45:13.254Z,91.93
2019-01-14T06:47:42.309Z,91.17
2019-01-14T06:50:13.121Z,91.55
2019-01-14T06:52:42.288Z,92.40
2019-01-14T06:55:11.392Z,91.57
2019-01-14T06:57:40.583Z,92.46
2019-01-14T07:00:12.961Z,92.25
2019-01-14T07:02:42.027Z,91.99
2019-01-14T07:05:11.085Z,91.42
2019-01-14T07:07:40.174Z,90.93
2019-01-14T07:10:11.301Z,91.12
2019-01-14T07:12:40.385Z,91.81
2019-01-14T07:15:09.741Z,91.67
2019-01-14T07:17:38.828Z,92.62
2019-01-14T07:20:08.098Z,91.70
2019-01-14T07:22:37.182Z,91.12
2019-01-14T07:25:06.574Z,91.11
2019-01-14T07:27:35.688Z,90.66
2019-01-14T07:30:07.711Z,89.97
2019-01-14T07:32:36.954Z,90.40
2019-01-14T07:35:06.039Z,91.47
2019-01-14T07:37:35.106Z,90.99
2019-01-14T07:40:05.524Z,90.21
2019-01-14T07:42:34.573Z,92.32
2019-01-14T07:45:03.815Z,91.06
2019-01-14T07:47:32.943Z,91.63
2019-01-14T07:50:02.182Z,90.99
2019-01-14T07:52:31.252Z,91.65
2019-01-14T07:55:00.340Z,89.74
2019-01-14T07:57:29.536Z,90.19
2019-01-14T07:59:58.657Z,91.64
2019-01-14T08:02:27.695Z,91.93
2019-01-14T08:04:59.235Z,90.05
2019-01-14T08:07:28.359Z,90.42
2019-01-14T08:09:57.415Z,90.95
2019-01-14T08:12:26.482Z,90.04
2019-01-14T08:14:55.543Z,89.62
2019-01-14T08:17:24.609Z,89.32
2019-01-14T08:19:53.699Z,89.28
2019-01-14T08:22:22.826Z,88.02
2019-01-14T08:24:51.893Z,89.15
2019-01-14T08:27:21.006Z,88.43
2019-01-14T08:29:50.129Z,88.23
2019-01-14T08:32:19.274Z,88.86
2019-01-14T08:34:48.347Z,87.52
2019-01-14T08:37:17.401Z,86.99
2019-01-14T08:39:46.513Z,87.24
2019-01-14T08:42:16.079Z,87.54
2019-01-14T08:44:45.525Z,87.53
2019-01-14T08:47:14.587Z,87.24
2019-01-14T08:49:43.677Z,87.22
2019-01-14T08:52:12.756Z,87.63
2019-01-14T08:54:41.845Z,88.26
2019-01-14T08:57:10.924Z,88.14
2019-01-14T08:59:40.004Z,88.28
2019-01-14T09:02:09.235Z,87.85
2019-01-14T09:04:38.429Z,88.28
2019-01-14T09:07:07.777Z,88.23
2019-01-14T09:09:36.903Z,87.09
2019-01-14T09:12:05.982Z,87.45
2019-01-14T09:14:35.212Z,86.92
2019-01-14T09:17:04.315Z,85.80
2019-01-14T09:19:33.407Z,86.32
2019-01-14T09:22:02.622Z,85.36
2019-01-14T09:24:31.796Z,85.08
2019-01-14T09:27:00.856Z,85.73
2019-01-14T09:29:29.968Z,86.18
2019-01-14T09:31:59.060Z,85.90
2019-01-14T09:34:28.446Z,84.29
2019-01-14T09:36:57.617Z,84.74
2019-01-14T09:39:26.654Z,83.73
2019-01-14T09:41:55.737Z,83.54
2019-01-14T09:44:24.833Z,84.19
2019-01-14T09:46:53.996Z,82.85
2019-01-14T09:49:23.028Z,82.20
2019-01-14T09:51:52.167Z,83.12
2019-01-14T09:54:21.250Z,81.68
2019-01-14T09:56:50.369Z,82.16
2019-01-14T09:59:19.422Z,81.98
2019-01-14T10:01:48.536Z,81.77
2019-01-14T10:04:17.668Z,79.40
2019-01-14T10:06:46.733Z,80.10
2019-01-14T10:09:15.862Z,77.29
2019-01-14T10:11:45.023Z,77.33
2019-01-14T10:14:14.155Z,77.11
2019-01-14T10:16:44.274Z,76.72
2019-01-14T10:19:13.740Z,77.10
2019-01-14T10:21:42.829Z,75.63
2019-01-14T10:24:11.930Z,74.28
2019-01-14T10:26:41.183Z,74.72
2019-01-14T10:29:10.271Z,75.67
2019-01-14T10:31:39.368Z,76.32
2019-01-14T10:34:08.455Z,75.08
2019-01-14T10:36:37.471Z,77.67
2019-01-14T10:39:08.049Z,77.83
2019-01-14T10:41:37.138Z,77.72
2019-01-14T10:44:06.285Z,77.67
2019-01-14T10:46:35.446Z,77.02
2019-01-14T10:49:06.801Z,77.13
2019-01-14T10:51:35.350Z,76.59
2019-01-14T10:54:04.452Z,77.65
2019-01-14T10:56:33.556Z,75.54
2019-01-14T10:59:02.632Z,75.83
2019-01-14T11:01:31.817Z,74.69
2019-01-14T11:04:00.914Z,76.50
2019-01-14T11:06:30.122Z,72.99
2019-01-14T11:09:05.754Z,73.17
2019-01-14T11:11:30.198Z,73.03
2019-01-14T11:13:59.315Z,72.62
2019-01-14T11:16:28.471Z,72.67
2019-01-14T11:18:57.530Z,72.16
2019-01-14T11:21:26.672Z,74.56
2019-01-14T11:23:55.715Z,73.51
2019-01-14T11:26:24.875Z,72.14
2019-01-14T11:28:53.977Z,72.93
2019-01-14T11:31:23.117Z,73.51
2019-01-14T11:33:52.378Z,72.08
2019-01-14T11:36:21.482Z,71.54
2019-01-14T11:38:51.812Z,71.41
2019-01-14T11:41:23.667Z,71.17
2019-01-14T11:43:52.873Z,70.87
2019-01-14T11:46:21.997Z,70.69
2019-01-14T11:48:51.066Z,70.02
2019-01-14T11:51:20.171Z,71.27
2019-01-14T11:53:49.275Z,70.51
2019-01-14T11:56:18.431Z,71.04
2019-01-14T11:58:47.539Z,71.78
2019-01-14T12:01:16.676Z,69.08
2019-01-14T12:03:45.743Z,71.11
2019-01-14T12:06:14.984Z,69.78
2019-01-14T12:08:44.067Z,69.58
2019-01-14T12:11:13.184Z,67.22
2019-01-14T12:13:42.268Z,66.37
2019-01-14T12:16:11.375Z,66.68
2019-01-14T12:18:40.463Z,67.24
2019-01-14T12:21:09.548Z,66.96
2019-01-14T12:23:38.675Z,71.59
2019-01-14T12:26:07.738Z,83.47
2019-01-14T12:28:36.919Z,82.72
2019-01-14T12:31:06.192Z,82.64
2019-01-14T12:33:35.267Z,83.17
2019-01-14T12:36:04.324Z,82.19
2019-01-14T12:38:33.395Z,83.32
2019-01-14T12:41:02.595Z,82.48
2019-01-14T12:43:31.733Z,83.56
2019-01-14T12:46:00.803Z,82.16
2019-01-14T12:48:30.014Z,82.74
2019-01-14T12:50:59.046Z,82.91
2019-01-14T12:53:28.311Z,83.85
2019-01-14T12:55:57.435Z,83.54
2019-01-14T12:58:26.603Z,83.00
2019-01-14T13:00:55.673Z,82.01
2019-01-14T13:03:24.746Z,82.57
2019-01-14T13:05:53.886Z,82.23
2019-01-14T13:08:22.971Z,81.84
2019-01-14T13:10:52.063Z,80.84
2019-01-14T13:13:21.215Z,80.56
2019-01-14T13:15:50.332Z,77.91
2019-01-14T13:18:19.444Z,79.54
2019-01-14T13:20:48.561Z,78.74
2019-01-14T13:23:17.712Z,79.35
2019-01-14T13:25:46.827Z,77.00
2019-01-14T13:28:15.929Z,77.98
2019-01-14T13:30:45.030Z,76.72
2019-01-14T13:33:16.895Z,76.95
2019-01-14T13:35:46.138Z,75.15
2019-01-14T13:38:15.248Z,74.84
2019-01-14T13:40:44.371Z,75.60
2019-01-14T13:43:13.480Z,75.26
2019-01-14T13:45:42.620Z,74.98
2019-01-14T13:48:11.743Z,74.85
2019-01-14T13:50:40.841Z,74.50
2019-01-14T13:53:10.000Z,73.23
2019-01-14T13:55:39.214Z,72.89
2019-01-14T13:58:08.285Z,75.11
2019-01-14T14:00:37.394Z,72.66
2019-01-14T14:03:06.468Z,72.34
2019-01-14T14:05:35.736Z,72.79
2019-01-14T14:08:04.869Z,74.00
2019-01-14T14:10:34.271Z,72.78
2019-01-14T14:13:03.461Z,71.77
2019-01-14T14:15:32.599Z,71.04
2019-01-14T14:18:01.688Z,71.17
2019-01-14T14:20:30.805Z,69.65
2019-01-14T14:22:59.879Z,70.10
2019-01-14T14:25:28.951Z,70.03
2019-01-14T14:27:58.164Z,70.57
2019-01-14T14:30:38.058Z,69.93
2019-01-14T14:33:07.194Z,68.55
2019-01-14T14:35:36.428Z,69.03
2019-01-14T14:38:06.866Z,70.26
2019-01-14T14:40:36.041Z,70.11
2019-01-14T14:43:05.169Z,69.87
2019-01-14T14:45:34.330Z,69.57
2019-01-14T14:48:03.439Z,69.94
2019-01-14T14:50:32.615Z,71.38
2019-01-14T14:53:01.761Z,69.21
2019-01-14T14:55:30.940Z,71.23
2019-01-14T14:58:00.112Z,70.25
2019-01-14T15:00:29.214Z,69.44
2019-01-14T15:02:58.469Z,68.98
2019-01-14T15:05:27.575Z,69.28
2019-01-14T15:07:56.731Z,69.53
2019-01-14T15:10:25.795Z,70.30
2019-01-14T15:12:54.914Z,70.61
2019-01-14T15:15:24.710Z,70.14
2019-01-14T15:17:53.851Z,69.62
2019-01-14T15:20:24.381Z,69.58
2019-01-14T15:22:53.521Z,69.90
2019-01-14T15:25:22.663Z,70.50
2019-01-14T15:27:51.765Z,71.39
2019-01-14T15:30:23.199Z,72.35
2019-01-14T15:32:52.353Z,72.38
2019-01-14T15:35:21.450Z,73.04
2019-01-14T15:37:50.561Z,72.96
2019-01-14T15:40:19.817Z,73.77
2019-01-14T15:42:48.948Z,74.26
2019-01-14T15:45:18.896Z,75.20
2019-01-14T15:47:48.086Z,74.12
2019-01-14T15:50:17.313Z,74.71
2019-01-14T15:52:46.479Z,73.81
2019-01-14T15:55:23.925Z,74.37
2019-01-14T15:57:52.990Z,73.99
2019-01-14T16:00:22.148Z,73.96
2019-01-14T16:02:51.372Z,73.73
2019-01-14T16:05:20.540Z,75.06
2019-01-14T16:07:49.657Z,75.03
2019-01-14T16:10:20.905Z,74.07
2019-01-14T16:12:50.145Z,74.47
2019-01-14T16:15:19.399Z,75.00
2019-01-14T16:17:48.545Z,74.99
2019-01-14T16:20:19.495Z,74.57
2019-01-14T16:22:49.531Z,74.83
2019-01-14T16:25:18.726Z,74.39
2019-01-14T16:27:47.852Z,74.56
2019-01-14T16:30:19.281Z,74.33
2019-01-14T16:32:48.393Z,75.30
2019-01-14T16:35:17.524Z,75.27
2019-01-14T16:37:46.656Z,74.38
2019-01-14T16:40:18.190Z,74.76
2019-01-14T16:42:46.625Z,75.24
2019-01-14T16:45:17.872Z,75.83
2019-01-14T16:47:47.088Z,74.57
2019-01-14T16:50:16.384Z,75.37
2019-01-14T16:52:45.506Z,75.61
2019-01-14T16:55:16.499Z,75.79
2019-01-14T16:57:45.651Z,76.84
2019-01-14T17:00:17.371Z,77.09
2019-01-14T17:02:46.565Z,77.51
2019-01-14T17:05:15.922Z,77.57
2019-01-14T17:07:45.112Z,77.78
2019-01-14T17:10:15.071Z,77.33
2019-01-14T17:12:44.195Z,77.82
2019-01-14T17:15:13.346Z,77.87
2019-01-14T17:17:42.449Z,78.79
2019-01-14T17:20:15.043Z,78.88
2019-01-14T17:22:44.272Z,78.18
2019-01-14T17:25:13.516Z,77.26
2019-01-14T17:27:42.666Z,78.18
2019-01-14T17:30:13.188Z,77.27
2019-01-14T17:32:42.472Z,77.27
2019-01-14T17:35:11.725Z,76.18
2019-01-14T17:37:41.540Z,75.06
2019-01-14T17:40:13.084Z,75.32
2019-01-14T17:42:42.453Z,75.17
2019-01-14T17:45:11.767Z,76.67
2019-01-14T17:47:40.910Z,75.72
2019-01-14T17:50:12.936Z,76.82
2019-01-14T17:52:42.101Z,76.00
2019-01-14T17:55:11.297Z,76.99
2019-01-14T17:57:40.461Z,75.95
2019-01-14T18:00:16.362Z,75.92
2019-01-14T18:02:45.476Z,76.31
2019-01-14T18:05:14.643Z,75.44
2019-01-14T18:07:45.850Z,74.98
2019-01-14T18:10:16.828Z,76.13
2019-01-14T18:12:46.021Z,75.86
2019-01-14T18:15:15.139Z,74.84
2019-01-14T18:17:44.414Z,75.90
2019-01-14T18:20:16.951Z,75.76
2019-01-14T18:22:46.140Z,76.27
2019-01-14T18:25:15.488Z,76.18
2019-01-14T18:27:44.949Z,76.37
2019-01-14T18:30:18.923Z,76.16
2019-01-14T18:32:48.126Z,76.93
2019-01-14T18:35:17.499Z,76.50
2019-01-14T18:37:50.029Z,76.44
2019-01-14T18:40:19.352Z,76.38
2019-01-14T18:42:48.480Z,76.24
2019-01-14T18:45:19.344Z,74.35
2019-01-14T18:47:48.736Z,74.22
2019-01-14T18:50:22.537Z,74.70
2019-01-14T18:52:51.801Z,74.45
2019-01-14T18:55:20.957Z,74.77
2019-01-14T19:13:23.543Z,74.96
2019-01-14T19:15:52.805Z,74.55
2019-01-14T19:18:24.287Z,74.33
2019-01-14T19:20:53.208Z,74.57
2019-01-14T19:23:24.307Z,74.96
2019-01-14T19:25:53.566Z,75.92
2019-01-14T19:28:25.662Z,75.91
2019-01-14T19:30:56.537Z,76.12
2019-01-14T19:33:33.859Z,75.53
2019-01-14T19:36:03.439Z,75.18
2019-01-14T19:38:33.052Z,76.25
2019-01-14T19:41:06.713Z,76.40
2019-01-14T19:43:36.118Z,76.64
2019-01-14T19:46:05.968Z,76.92
2019-01-14T19:48:35.454Z,76.76
2019-01-14T19:51:07.372Z,76.89
2019-01-14T19:53:36.865Z,76.29
2019-01-14T19:56:06.145Z,76.58
2019-01-14T19:58:35.362Z,76.49
2019-01-14T20:01:04.932Z,77.00
2019-01-14T20:03:34.232Z,76.32
2019-01-14T20:06:03.502Z,76.44
2019-01-14T20:08:32.642Z,76.84
2019-01-14T20:11:08.987Z,76.85
2019-01-14T20:13:32.803Z,76.64
2019-01-14T20:16:02.016Z,76.86
2019-01-14T20:18:31.335Z,76.68
2019-01-14T20:21:00.551Z,76.91
2019-01-14T20:23:29.816Z,77.08
2019-01-14T20:25:59.142Z,76.69
2019-01-14T20:28:28.257Z,76.73
2019-01-14T20:30:57.533Z,77.20
2019-01-14T20:33:26.808Z,78.08
2019-01-14T20:35:56.417Z,77.78
2019-01-14T20:38:25.882Z,78.19
2019-01-14T20:40:55.186Z,78.80
2019-01-14T20:43:24.319Z,79.08
2019-01-14T20:45:53.753Z,79.35
2019-01-14T20:48:23.214Z,80.41
2019-01-14T20:50:52.409Z,80.44
2019-01-14T20:53:21.609Z,80.89
2019-01-14T20:55:50.832Z,81.10
2019-01-14T20:58:20.006Z,81.43
2019-01-14T21:00:49.200Z,80.96
2019-01-14T21:03:18.402Z,81.47
2019-01-14T21:05:47.693Z,81.26
2019-01-14T21:08:16.950Z,81.55
2019-01-14T21:10:46.246Z,81.22
2019-01-14T21:13:18.252Z,81.18
2019-01-14T21:15:46.688Z,80.96
2019-01-14T21:18:15.960Z,81.08
2019-01-14T21:20:45.124Z,81.03
2019-01-14T21:23:14.512Z,81.20
2019-01-14T21:25:43.755Z,80.77
2019-01-14T21:28:13.020Z,81.44
2019-01-14T21:30:42.176Z,80.90
2019-01-14T21:33:11.396Z,80.78
2019-01-14T21:35:40.693Z,79.84
2019-01-14T21:38:09.888Z,79.77
2019-01-14T21:40:39.119Z,79.32
2019-01-14T21:43:08.417Z,79.92
2019-01-14T21:45:37.591Z,79.35
2019-01-14T21:48:06.839Z,78.63
2019-01-14T21:50:35.990Z,78.07
2019-01-14T21:53:05.089Z,78.85
2019-01-14T21:55:34.302Z,78.69
2019-01-14T21:58:03.465Z,78.83
2019-01-14T22:00:32.655Z,78.95
2019-01-14T22:03:01.767Z,79.94
2019-01-14T22:05:30.979Z,81.43
2019-01-14T22:08:00.147Z,80.73
2019-01-14T22:10:29.476Z,81.08
2019-01-14T22:12:58.632Z,81.66
2019-01-14T22:15:27.787Z,81.65
2019-01-14T22:17:56.987Z,82.06
2019-01-14T22:20:28.601Z,82.03
2019-01-14T22:22:57.766Z,81.60
2019-01-14T22:25:26.931Z,82.05
2019-01-14T22:27:56.056Z,82.45
2019-01-14T22:30:28.016Z,82.60
2019-01-14T22:32:57.085Z,82.96
2019-01-14T22:35:26.216Z,82.60
2019-01-14T22:37:55.337Z,82.63
2019-01-14T22:40:24.512Z,82.49
2019-01-14T22:42:53.740Z,82.82
2019-01-14T22:45:22.846Z,83.17
2019-01-14T22:47:52.065Z,82.68
2019-01-14T22:50:21.294Z,83.39
2019-01-14T22:52:50.633Z,83.19
2019-01-14T22:55:19.727Z,82.75
2019-01-14T22:57:48.914Z,82.87
2019-01-14T23:00:54.324Z,83.05
2019-01-14T23:03:23.516Z,83.12
2019-01-14T23:05:52.682Z,83.67
2019-01-14T23:08:21.774Z,83.78
2019-01-14T23:10:50.986Z,84.33
2019-01-14T23:13:20.143Z,83.85
2019-01-14T23:15:49.317Z,84.18
2019-01-14T23:18:18.744Z,84.08
2019-01-14T23:20:47.822Z,84.45
2019-01-14T23:23:16.912Z,84.99
2019-01-14T23:25:46.033Z,84.62
2019-01-14T23:28:15.156Z,84.68
2019-01-14T23:30:44.238Z,84.66
2019-01-14T23:33:13.311Z,84.79
2019-01-14T23:35:42.427Z,85.31
2019-01-14T23:38:11.524Z,85.06
2019-01-14T23:40:40.618Z,84.99
2019-01-14T23:43:09.803Z,85.31
2019-01-14T23:45:38.913Z,85.13
2019-01-14T23:48:07.988Z,85.61
2019-01-14T23:50:37.089Z,86.07
2019-01-14T23:53:06.174Z,85.24
2019-01-14T23:55:35.325Z,85.53
2019-01-14T23:58:04.470Z,85.98
